Time;durP1;ratioP1;P1;durP2;ratioP2;P2;SDS_P1;SDS_P2;PMS_P1;PMS_P2;Temp;Humidity;BMP_temperature;BMP_pressure;BME280_temperature;BME280_humidity;BME280_pressure;Samples;Min_cycle;Max_cycle;Signal;HPM_P1;HPM_P2
2022/06/08 00:00:54;;;;;;;;;;;;;;;20.93;58.27;100510.16;7284660;19;153205;-55
2022/06/08 00:03:25;;;;;;;;;;;;;;;20.97;58.67;100518.75;7285512;19;153410;-56
2022/06/08 00:05:56;;;;;;;;;;;;;;;20.99;58.47;100514.47;7286252;19;154008;-56
2022/06/08 00:08:23;;;;;;;;;;;;;;;21.10;58.18;100515.03;7287497;19;151735;-56
2022/06/08 00:10:50;;;;;;;;;;;;;;;21.01;58.54;100505.72;7287931;19;152665;-55
2022/06/08 00:13:17;;;;;;;;;;;;;;;20.97;58.91;100502.75;7291955;19;153979;-55
2022/06/08 00:15:53;;;;;;;;;;;;;;;21.03;59.00;100500.63;7284231;19;153379;-56
2022/06/08 00:18:21;;;;;;;;;;;;;;;21.04;58.84;100497.47;7284595;19;153875;-54
2022/06/08 00:20:47;;;;;;;;;;;;;;;21.03;59.29;100501.44;7285592;19;152398;-55
2022/06/08 00:23:14;;;;;;;;;;;;;;;20.97;59.00;100490.66;7285321;19;152492;-55
2022/06/08 00:25:44;;;;;;;;;;;;;;;20.93;59.49;100490.50;7286546;19;154102;-55
2022/06/08 00:28:21;;;;;;;;;;;;;;;20.95;59.39;100482.56;7286694;19;151748;-55
2022/06/08 00:30:48;;;;;;;;;;;;;;;20.93;59.61;100476.44;7284769;19;153715;-56
2022/06/08 00:33:16;;;;;;;;;;;;;;;20.91;59.82;100469.47;7284551;19;155653;-56
2022/06/08 00:35:51;;;;;;;;;;;;;;;21.06;59.63;100466.25;7289277;19;153394;-55
2022/06/08 00:38:18;;;;;;;;;;;;;;;21.03;59.72;100462.09;7285073;19;154414;-56
2022/06/08 00:40:55;;;;;;;;;;;;;;;20.94;60.09;100455.63;7284642;19;156578;-55
2022/06/08 00:43:23;;;;;;;;;;;;;;;20.92;60.69;100454.28;7284784;19;153586;-56
2022/06/08 00:45:56;;;;;;;;;;;;;;;20.92;60.63;100446.72;7284072;19;153673;-55
2022/06/08 00:48:26;;;;;;;;;;;;;;;20.94;60.70;100446.38;7286895;19;151832;-55
2022/06/08 00:50:54;;;;;;;;;;;;;;;20.96;60.94;100441.25;7283249;19;153371;-56
2022/06/08 00:53:33;;;;;;;;;;;;;;;20.92;60.62;100431.84;7282349;19;154112;-55
2022/06/08 00:56:02;;;;;;;;;;;;;;;20.92;60.71;100432.66;7283779;19;152211;-54
2022/06/08 00:58:30;;;;;;;;;;;;;;;20.90;61.14;100423.72;7289737;19;153805;-55
2022/06/08 01:00:58;;;;;;;;;;;;;;;20.90;61.22;100411.66;7282820;19;151655;-55
2022/06/08 01:03:26;;;;;;;;;;;;;;;20.90;61.45;100411.66;7285694;19;156272;-55
2022/06/08 01:05:56;;;;;;;;;;;;;;;20.90;61.24;100406.03;7284277;19;154139;-55
2022/06/08 01:08:31;;;;;;;;;;;;;;;20.89;61.45;100405.25;7285790;19;152310;-56
2022/06/08 01:11:00;;;;;;;;;;;;;;;20.89;61.40;100401.59;7285343;19;152714;-55
2022/06/08 01:13:28;;;;;;;;;;;;;;;20.89;61.53;100388.38;7283543;19;154426;-55
2022/06/08 01:15:55;;;;;;;;;;;;;;;20.90;61.80;100392.81;7285479;19;151693;-56
2022/06/08 01:18:22;;;;;;;;;;;;;;;20.94;61.49;100387.41;7284263;19;152978;-55
2022/06/08 01:20:51;;;;;;;;;;;;;;;20.94;61.90;100382.59;7289229;19;153790;-56
2022/06/08 01:23:18;;;;;;;;;;;;;;;20.92;61.41;100368.06;7285275;19;152598;-55
2022/06/08 01:25:55;;;;;;;;;;;;;;;20.93;61.50;100375.34;7284929;19;153855;-55
2022/06/08 01:28:32;;;;;;;;;;;;;;;20.92;61.53;100370.88;7283714;19;152531;-55
2022/06/08 01:31:04;;;;;;;;;;;;;;;20.90;61.90;100367.56;7286379;19;152590;-56
2022/06/08 01:33:43;;;;;;;;;;;;;;;20.91;61.68;100368.38;7283063;19;153546;-56
2022/06/08 01:36:37;;;;;;;;;;;;;;;20.90;62.15;100358.31;7278090;19;152072;-56
2022/06/08 01:39:03;;;;;;;;;;;;;;;20.89;62.22;100349.06;7282111;19;152658;-55
2022/06/08 01:41:48;;;;;;;;;;;;;;;20.90;61.86;100347.06;7281703;19;153123;-55
2022/06/08 01:44:30;;;;;;;;;;;;;;;20.90;61.88;100347.91;7288825;19;151610;-56
2022/06/08 01:46:56;;;;;;;;;;;;;;;20.90;62.37;100333.03;7280338;19;154075;-55
2022/06/08 01:49:23;;;;;;;;;;;;;;;20.90;61.95;100328.25;7283422;19;152445;-56
2022/06/08 01:51:53;;;;;;;;;;;;;;;20.91;62.07;100315.03;7284483;19;152518;-56
2022/06/08 01:54:42;;;;;;;;;;;;;;;20.90;62.29;100313.38;7283655;19;153546;-54
2022/06/08 01:57:15;;;;;;;;;;;;;;;20.91;62.05;100307.44;7282576;19;151784;-56
2022/06/08 01:59:49;;;;;;;;;;;;;;;20.90;62.33;100300.16;7284922;19;152629;-55
2022/06/08 02:02:22;;;;;;;;;;;;;;;20.91;62.42;100292.56;7280242;19;153396;-55
2022/06/08 02:04:52;;;;;;;;;;;;;;;20.90;62.38;100283.31;7282771;19;151675;-55
2022/06/08 02:07:27;;;;;;;;;;;;;;;20.95;62.02;100285.97;7290668;19;153455;-56
2022/06/08 02:09:54;;;;;;;;;;;;;;;20.96;62.59;100281.19;7283677;19;151697;-55
2022/06/08 02:12:21;;;;;;;;;;;;;;;20.94;62.11;100278.69;7283624;19;152674;-56
2022/06/08 02:15:09;;;;;;;;;;;;;;;20.98;62.53;100274.09;7279526;19;154087;-55
2022/06/08 02:17:43;;;;;;;;;;;;;;;21.00;62.08;100270.94;7283947;19;151924;-55
2022/06/08 02:20:13;;;;;;;;;;;;;;;20.97;62.45;100271.63;7283542;19;153015;-55
2022/06/08 02:22:45;;;;;;;;;;;;;;;20.95;62.35;100262.69;7281760;19;153234;-55
2022/06/08 02:25:16;;;;;;;;;;;;;;;20.94;62.56;100264.66;7282798;19;152325;-55
2022/06/08 02:27:51;;;;;;;;;;;;;;;20.94;62.57;100255.44;7290049;19;153599;-56
2022/06/08 02:30:20;;;;;;;;;;;;;;;20.92;62.44;100255.75;7280707;19;153391;-55
2022/06/08 02:35:49;;;;;;;;;;;;;;;20.91;62.29;100240.03;7280358;19;153956;-55
2022/06/08 02:38:18;;;;;;;;;;;;;;;20.92;62.35;100246.50;7279745;19;152281;-55
2022/06/08 02:40:48;;;;;;;;;;;;;;;20.96;62.56;100247.47;7281740;19;152614;-56
2022/06/08 02:43:17;;;;;;;;;;;;;;;20.95;62.37;100240.22;7281757;19;154211;-56
2022/06/08 02:45:56;;;;;;;;;;;;;;;20.95;62.63;100240.22;7280731;19;152655;-56
2022/06/08 02:48:23;;;;;;;;;;;;;;;20.93;62.81;100229.31;7281973;19;153156;-55
2022/06/08 02:50:51;;;;;;;;;;;;;;;20.92;62.77;100226.84;7286589;19;154386;-56
2022/06/08 02:53:18;;;;;;;;;;;;;;;20.92;63.12;100213.63;7281999;19;152473;-54
2022/06/08 02:56:04;;;;;;;;;;;;;;;20.92;63.16;100212.78;7282500;19;153509;-56
2022/06/08 02:58:35;;;;;;;;;;;;;;;20.93;63.13;100198.44;7280032;19;152113;-56
2022/06/08 03:01:08;;;;;;;;;;;;;;;20.97;63.33;100199.44;7279817;19;152760;-55
2022/06/08 03:03:55;;;;;;;;;;;;;;;20.94;63.17;100185.22;7280381;19;154094;-56
2022/06/08 03:06:25;;;;;;;;;;;;;;;20.93;62.96;100181.59;7282186;19;151936;-55
2022/06/08 03:08:53;;;;;;;;;;;;;;;20.91;63.42;100183.88;7282251;19;153149;-55
2022/06/08 03:11:21;;;;;;;;;;;;;;;20.96;63.33;100194.97;7279305;19;153270;-55
2022/06/08 03:13:49;;;;;;;;;;;;;;;20.94;63.04;100188.81;7289123;19;151820;-56
2022/06/08 03:16:34;;;;;;;;;;;;;;;20.92;63.16;100174.31;7280070;19;154131;-56
2022/06/08 03:19:00;;;;;;;;;;;;;;;20.96;63.11;100174.47;7282446;19;152055;-55
2022/06/08 03:21:27;;;;;;;;;;;;;;;20.94;63.52;100159.94;7279785;19;153274;-55
2022/06/08 03:23:55;;;;;;;;;;;;;;;20.93;63.40;100163.91;7278640;19;154390;-55
2022/06/08 03:26:23;;;;;;;;;;;;;;;20.93;63.75;100164.75;7282323;19;152498;-55
2022/06/08 03:28:51;;;;;;;;;;;;;;;20.92;63.53;100163.06;7280677;19;153340;-55
2022/06/08 03:31:17;;;;;;;;;;;;;;;20.92;63.56;100156.63;7280270;19;153890;-55
2022/06/08 03:33:44;;;;;;;;;;;;;;;20.92;63.45;100148.22;7282185;19;151702;-56
2022/06/08 03:36:12;;;;;;;;;;;;;;;20.93;63.66;100142.28;7288232;19;152401;-55
2022/06/08 03:38:38;;;;;;;;;;;;;;;20.92;63.54;100151.00;7275469;19;152793;-55
2022/06/08 03:41:05;;;;;;;;;;;;;;;20.91;63.75;100144.56;7281078;19;152569;-55
2022/06/08 03:43:32;;;;;;;;;;;;;;;20.92;63.79;100146.22;7280297;19;153278;-55
2022/06/08 03:46:02;;;;;;;;;;;;;;;21.00;63.75;100145.41;7280866;19;151805;-55
2022/06/08 03:48:29;;;;;;;;;;;;;;;20.96;63.87;100141.59;7280633;19;153003;-55
2022/06/08 03:50:57;;;;;;;;;;;;;;;20.98;63.46;100150.53;7279495;19;153465;-55
2022/06/08 03:53:34;;;;;;;;;;;;;;;20.99;63.73;100149.34;7280315;19;152194;-55
2022/06/08 03:56:02;;;;;;;;;;;;;;;21.00;63.61;100145.41;7281342;19;152622;-55
2022/06/08 03:58:28;;;;;;;;;;;;;;;20.96;63.51;100140.78;7282641;19;153863;-55
2022/06/08 04:00:55;;;;;;;;;;;;;;;20.97;64.12;100145.22;7278066;19;152541;-55
2022/06/08 04:03:22;;;;;;;;;;;;;;;20.94;63.85;100138.28;7279061;19;153322;-55
2022/06/08 04:05:49;;;;;;;;;;;;;;;20.94;64.22;100148.72;7279969;19;152099;-55
2022/06/08 04:08:15;;;;;;;;;;;;;;;20.95;63.67;100141.91;7279168;19;152491;-56
2022/06/08 04:10:42;;;;;;;;;;;;;;;20.94;63.89;100137.47;7277466;19;153814;-55
2022/06/08 04:13:09;;;;;;;;;;;;;;;20.92;64.02;100137.81;7279729;19;151849;-56
2022/06/08 04:15:41;;;;;;;;;;;;;;;20.94;64.27;100131.88;7280178;19;153033;-54
2022/06/08 04:18:09;;;;;;;;;;;;;;;20.93;64.61;100128.22;7278559;19;153203;-56
2022/06/08 04:20:39;;;;;;;;;;;;;;;20.96;64.43;100133.16;7286514;19;152208;-55
2022/06/08 04:23:06;;;;;;;;;;;;;;;20.98;64.58;100124.44;7275827;19;153905;-56
2022/06/08 04:25:33;;;;;;;;;;;;;;;20.95;65.00;100127.88;7279270;19;152253;-55
2022/06/08 04:28:00;;;;;;;;;;;;;;;20.95;65.16;100134.31;7277961;19;154121;-55
2022/06/08 04:30:27;;;;;;;;;;;;;;;20.94;65.11;100132.66;7277358;19;153623;-55
2022/06/08 04:32:53;;;;;;;;;;;;;;;20.94;64.93;100140.28;7278078;19;152553;-55
2022/06/08 04:35:20;;;;;;;;;;;;;;;20.93;65.16;100139.47;7282484;19;152598;-55
2022/06/08 04:37:47;;;;;;;;;;;;;;;20.92;65.39;100143.41;7282921;19;153876;-56
2022/06/08 04:40:15;;;;;;;;;;;;;;;20.95;65.14;100144.72;7290341;19;152317;-55
2022/06/08 04:42:42;;;;;;;;;;;;;;;20.94;65.38;100143.91;7282013;19;153239;-56
2022/06/08 04:45:10;;;;;;;;;;;;;;;20.97;65.33;100137.63;7287211;19;153357;-56
2022/06/08 04:47:37;;;;;;;;;;;;;;;20.96;65.68;100133.16;7286271;19;153619;-55
2022/06/08 04:50:05;;;;;;;;;;;;;;;20.98;65.21;100130.03;7283175;19;154030;-56
2022/06/08 04:52:32;;;;;;;;;;;;;;;20.97;65.25;100137.63;7286002;19;152040;-56
2022/06/08 04:54:58;;;;;;;;;;;;;;;20.97;65.18;100128.38;7285001;19;153313;-56
2022/06/08 04:57:25;;;;;;;;;;;;;;;20.97;65.64;100131.19;7284500;19;153597;-55
2022/06/08 04:59:52;;;;;;;;;;;;;;;20.96;65.59;100127.56;7286054;19;152015;-55
2022/06/08 05:05:09;;;;;;;;;;;;;;;20.99;65.35;100126.88;7284606;19;152189;-55
2022/06/08 05:07:35;;;;;;;;;;;;;;;21.04;65.61;100137.13;7282502;19;152506;-55
2022/06/08 05:10:04;;;;;;;;;;;;;;;21.08;65.54;100127.69;7282862;19;153273;-56
2022/06/08 05:12:31;;;;;;;;;;;;;;;21.08;65.30;100133.31;7283632;19;152804;-56
2022/06/08 05:14:58;;;;;;;;;;;;;;;21.08;65.11;100124.91;7285649;19;152548;-55
2022/06/08 05:17:25;;;;;;;;;;;;;;;21.06;65.67;100126.41;7283656;19;152560;-55
2022/06/08 05:19:51;;;;;;;;;;;;;;;21.08;65.55;100127.69;7286401;19;152061;-55
2022/06/08 05:22:18;;;;;;;;;;;;;;;21.02;65.40;100133.84;7281118;19;152587;-55
2022/06/08 05:24:44;;;;;;;;;;;;;;;20.99;65.94;100126.88;7290398;19;154143;-56
2022/06/08 05:27:11;;;;;;;;;;;;;;;20.99;66.14;100126.06;7284996;19;153516;-54
2022/06/08 05:29:38;;;;;;;;;;;;;;;21.03;65.53;100119.44;7281598;19;153698;-56
2022/06/08 05:32:05;;;;;;;;;;;;;;;21.01;65.72;100116.16;7285474;19;152047;-55
2022/06/08 05:34:31;;;;;;;;;;;;;;;21.05;66.08;100128.38;7285207;19;154414;-56
2022/06/08 05:36:58;;;;;;;;;;;;;;;21.02;65.85;100123.44;7283367;19;153929;-54
2022/06/08 05:39:29;;;;;;;;;;;;;;;21.01;66.15;100118.13;7282089;19;152253;-55
2022/06/08 05:41:56;;;;;;;;;;;;;;;20.99;66.05;100112.84;7281307;19;152400;-55
2022/06/08 05:44:22;;;;;;;;;;;;;;;21.00;66.04;100117.31;7283851;19;153221;-56
2022/06/08 05:46:50;;;;;;;;;;;;;;;20.97;66.56;100119.97;7289412;19;152214;-56
2022/06/08 05:49:24;;;;;;;;;;;;;;;21.04;66.23;100126.72;7283765;19;153969;-56
2022/06/08 05:51:50;;;;;;;;;;;;;;;21.15;66.03;100130.88;7282473;19;153350;-56
2022/06/08 05:54:17;;;;;;;;;;;;;;;21.09;66.14;100129.34;7284907;19;153338;-55
2022/06/08 05:56:44;;;;;;;;;;;;;;;21.05;65.97;100138.78;7281796;19;153812;-56
2022/06/08 05:59:12;;;;;;;;;;;;;;;21.04;66.07;100137.13;7280880;19;152254;-55
2022/06/08 06:01:43;;;;;;;;;;;;;;;21.09;66.23;100128.53;7280405;19;152438;-55
2022/06/08 06:04:10;;;;;;;;;;;;;;;21.09;66.58;100134.16;7281513;19;153944;-55
2022/06/08 06:06:38;;;;;;;;;;;;;;;21.12;66.29;100142.72;7282070;19;151953;-56
2022/06/08 06:09:14;;;;;;;;;;;;;;;21.13;66.38;100129.53;7290896;19;153343;-55
2022/06/08 06:11:50;;;;;;;;;;;;;;;21.16;66.98;100129.72;7282739;19;152390;-56
2022/06/08 06:14:16;;;;;;;;;;;;;;;21.22;67.47;100135.97;7283825;19;153581;-56
2022/06/08 06:16:44;;;;;;;;;;;;;;;21.27;67.64;100141.44;7282241;19;154027;-55
2022/06/08 06:19:20;;;;;;;;;;;;;;;21.35;68.60;100132.16;7285271;19;151448;-55
2022/06/08 06:21:54;;;;;;;;;;;;;;;21.46;67.03;100129.81;7283133;19;153134;-56
2022/06/08 06:24:21;;;;;;;;;;;;;;;21.53;67.11;100130.16;7283519;19;153380;-55
2022/06/08 06:26:48;;;;;;;;;;;;;;;21.59;66.84;100138.03;7282438;19;152040;-55
2022/06/08 06:29:23;;;;;;;;;;;;;;;21.67;65.90;100139.16;7282968;19;153448;-55
2022/06/08 06:31:51;;;;;;;;;;;;;;;21.74;65.74;100139.50;7288496;19;152286;-56
2022/06/08 06:34:19;;;;;;;;;;;;;;;21.80;65.21;100148.56;7282809;19;153347;-55
2022/06/08 06:36:46;;;;;;;;;;;;;;;21.87;64.33;100149.69;7280782;19;153950;-56
2022/06/08 06:39:26;;;;;;;;;;;;;;;21.93;64.25;100153.19;7283064;19;155797;-55
2022/06/08 06:41:55;;;;;;;;;;;;;;;21.97;64.06;100156.97;7276849;19;152848;-55
2022/06/08 06:44:23;;;;;;;;;;;;;;;22.03;63.64;100150.81;7282063;19;153984;-55
2022/06/08 06:46:49;;;;;;;;;;;;;;;22.08;62.79;100156.25;7280396;19;152018;-56
2022/06/08 06:49:23;;;;;;;;;;;;;;;22.11;62.86;100149.13;7282523;19;153615;-56
2022/06/08 06:51:52;;;;;;;;;;;;;;;22.15;62.17;100150.09;7287159;19;154118;-55
2022/06/08 06:54:19;;;;;;;;;;;;;;;22.09;61.10;100149.47;7282651;19;152078;-56
2022/06/08 06:56:46;;;;;;;;;;;;;;;22.07;60.79;100153.78;7280925;19;153500;-57
2022/06/08 06:59:18;;;;;;;;;;;;;;;22.01;62.17;100161.59;7275293;19;151860;-55
2022/06/08 07:01:55;;;;;;;;;;;;;;;22.10;61.87;100169.97;7281824;19;153575;-55
2022/06/08 07:04:22;;;;;;;;;;;;;;;22.12;61.72;100162.84;7279586;19;154388;-56
2022/06/08 07:06:49;;;;;;;;;;;;;;;22.13;61.77;100170.13;7282196;19;152529;-56
2022/06/08 07:09:22;;;;;;;;;;;;;;;22.15;61.09;100184.69;7281215;19;153231;-56
2022/06/08 07:11:50;;;;;;;;;;;;;;;22.16;61.00;100179.91;7281365;19;153642;-55
2022/06/08 07:14:18;;;;;;;;;;;;;;;22.18;60.63;100177.56;7288714;19;151952;-56
2022/06/08 07:16:46;;;;;;;;;;;;;;;22.20;60.52;100188.47;7280736;19;154201;-56
2022/06/08 07:19:21;;;;;;;;;;;;;;;22.24;60.13;100183.81;7282994;19;152485;-56
2022/06/08 07:21:48;;;;;;;;;;;;;;;22.25;59.62;100188.28;7281880;19;153648;-55
2022/06/08 07:24:17;;;;;;;;;;;;;;;22.24;59.78;100186.63;7277975;19;153487;-56
2022/06/08 07:26:44;;;;;;;;;;;;;;;22.23;59.78;100197.06;7281035;19;152155;-56
2022/06/08 07:29:13;;;;;;;;;;;;;;;22.25;59.85;100200.38;7280808;19;152573;-56
2022/06/08 07:31:48;;;;;;;;;;;;;;;22.26;59.24;100202.00;7279751;19;152338;-55
2022/06/08 07:34:15;;;;;;;;;;;;;;;22.32;59.19;100209.09;7280411;19;152049;-56
2022/06/08 07:36:44;;;;;;;;;;;;;;;22.34;59.34;100206.78;7289394;19;153174;-55
2022/06/08 07:39:20;;;;;;;;;;;;;;;22.36;59.66;100210.06;7280300;19;151984;-56
2022/06/08 07:41:51;;;;;;;;;;;;;;;22.30;59.17;100214.25;7277095;19;153384;-56
2022/06/08 07:44:18;;;;;;;;;;;;;;;22.31;59.42;100206.63;7275513;19;154403;-55
2022/06/08 07:46:45;;;;;;;;;;;;;;;22.29;59.47;100212.59;7280182;19;151949;-56
2022/06/08 07:49:37;;;;;;;;;;;;;;;22.30;58.99;100217.06;7279786;19;153264;-55
2022/06/08 07:52:09;;;;;;;;;;;;;;;22.31;58.76;100217.88;7279794;19;153932;-56
2022/06/08 07:54:36;;;;;;;;;;;;;;;22.31;58.97;100217.88;7280188;19;152017;-56
2022/06/08 07:57:03;;;;;;;;;;;;;;;22.30;58.74;100224.69;7279336;19;153515;-56
2022/06/08 07:59:31;;;;;;;;;;;;;;;22.30;58.66;100225.53;7287555;19;154124;-56
2022/06/08 08:01:57;;;;;;;;;;;;;;;22.31;58.46;100224.34;7280506;19;153286;-56
2022/06/08 08:04:25;;;;;;;;;;;;;;;22.31;58.59;100221.53;7275770;19;152736;-56
2022/06/08 08:06:52;;;;;;;;;;;;;;;22.32;58.39;100213.91;7279534;19;151858;-56
2022/06/08 08:09:31;;;;;;;;;;;;;;;22.31;58.45;100215.06;7282142;19;152604;-55
2022/06/08 08:11:58;;;;;;;;;;;;;;;22.32;58.31;100227.97;7285388;19;153930;-55
2022/06/08 08:14:25;;;;;;;;;;;;;;;22.31;58.20;100220.69;7287814;19;152444;-56
2022/06/08 08:16:52;;;;;;;;;;;;;;;22.27;57.76;100226.19;7286794;19;153110;-56
2022/06/08 08:19:24;;;;;;;;;;;;;;;22.26;57.66;100218.09;7285307;19;153992;-56
2022/06/08 08:21:51;;;;;;;;;;;;;;;22.25;57.55;100216.44;7293553;19;151841;-56
2022/06/08 08:24:17;;;;;;;;;;;;;;;22.24;57.00;100211.97;7283939;19;157283;-56
2022/06/08 08:26:45;;;;;;;;;;;;;;;22.22;57.44;100206.66;7286207;19;152542;-55
2022/06/08 08:29:25;;;;;;;;;;;;;;;22.23;57.08;100211.13;7287247;19;153631;-56
2022/06/08 08:31:54;;;;;;;;;;;;;;;22.20;57.38;100200.56;7286347;19;153156;-56
2022/06/08 08:34:21;;;;;;;;;;;;;;;22.21;57.07;100205.03;7284713;19;152397;-56
2022/06/08 08:36:48;;;;;;;;;;;;;;;22.20;57.20;100209.00;7284755;19;153708;-56
2022/06/08 08:39:29;;;;;;;;;;;;;;;22.19;56.82;100212.97;7283088;19;154102;-56
2022/06/08 08:44:41;;;;;;;;;;;;;;;22.17;56.48;100218.94;7280910;19;154680;-55
2022/06/08 08:47:12;;;;;;;;;;;;;;;22.15;56.47;100214.81;7285817;19;154264;-56
2022/06/08 08:49:43;;;;;;;;;;;;;;;22.14;56.33;100221.59;7285787;19;154133;-55
2022/06/08 08:52:18;;;;;;;;;;;;;;;22.14;56.27;100213.16;7284104;19;153289;-56
2022/06/08 08:54:57;;;;;;;;;;;;;;;22.14;56.40;100215.97;7285848;19;151798;-56
2022/06/08 08:57:30;;;;;;;;;;;;;;;22.14;56.49;100208.38;7281512;19;152644;-55
2022/06/08 08:59:58;;;;;;;;;;;;;;;22.13;56.04;100217.13;7283662;19;153393;-55
2022/06/08 09:05:18;;;;;;;;;;;;;;;22.11;56.04;100214.66;7292627;19;154184;-56
2022/06/08 09:07:45;;;;;;;;;;;;;;;22.10;55.72;100209.38;7285121;19;151680;-56
2022/06/08 09:10:16;;;;;;;;;;;;;;;22.11;55.18;100200.59;7285257;19;152914;-55
2022/06/08 09:12:44;;;;;;;;;;;;;;;22.11;55.67;100211.84;7281142;19;153427;-56
2022/06/08 09:15:13;;;;;;;;;;;;;;;22.12;55.60;100207.84;7286641;19;152153;-57
2022/06/08 09:17:49;;;;;;;;;;;;;;;22.11;55.45;100205.41;7285925;19;153708;-56
2022/06/08 09:20:15;;;;;;;;;;;;;;;22.09;55.19;100208.53;7283898;19;153211;-56
2022/06/08 09:22:47;;;;;;;;;;;;;;;22.09;55.30;100207.72;7284647;19;152818;-56
2022/06/08 09:25:30;;;;;;;;;;;;;;;22.09;55.32;100213.34;7285178;19;153536;-56
2022/06/08 09:27:58;;;;;;;;;;;;;;;22.06;55.37;100209.22;7290940;19;154541;-56
2022/06/08 09:30:26;;;;;;;;;;;;;;;22.05;55.11;100215.19;7284627;19;152545;-56
2022/06/08 09:33:11;;;;;;;;;;;;;;;22.05;55.10;100213.19;7283775;19;153495;-56
2022/06/08 09:35:50;;;;;;;;;;;;;;;22.03;55.25;100209.09;7286868;19;154231;-55
2022/06/08 09:38:16;;;;;;;;;;;;;;;22.04;54.86;100213.53;7284568;19;152255;-56
2022/06/08 09:40:49;;;;;;;;;;;;;;;22.04;54.67;100207.91;7283378;19;153811;-56
2022/06/08 09:43:28;;;;;;;;;;;;;;;22.04;54.69;100207.91;7283563;19;155365;-55
2022/06/08 09:45:55;;;;;;;;;;;;;;;22.02;54.98;100201.78;7281482;19;152517;-55
2022/06/08 09:51:37;;;;;;;;;;;;;;;22.02;54.39;100199.81;7290993;19;156026;-56
2022/06/08 09:54:03;;;;;;;;;;;;;;;22.03;54.22;100197.81;7282348;19;153371;-56
2022/06/08 09:56:36;;;;;;;;;;;;;;;22.03;54.54;100200.63;7278896;19;152782;-56
2022/06/08 09:59:23;;;;;;;;;;;;;;;22.02;54.21;100199.81;7282253;19;152566;-57
2022/06/08 10:01:54;;;;;;;;;;;;;;;22.02;54.48;100205.44;7282301;19;153262;-57
2022/06/08 10:04:41;;;;;;;;;;;;;;;21.98;54.84;100200.81;7280789;19;152162;-56
2022/06/08 10:07:17;;;;;;;;;;;;;;;21.99;54.28;100211.72;7282908;19;153678;-56
2022/06/08 10:10:01;;;;;;;;;;;;;;;22.01;54.32;100217.03;7283151;19;153703;-55
2022/06/08 10:12:39;;;;;;;;;;;;;;;21.97;54.76;100222.50;7282578;19;152042;-56
2022/06/08 10:15:24;;;;;;;;;;;;;;;21.95;54.69;100226.78;7290712;19;152991;-56
2022/06/08 10:18:05;;;;;;;;;;;;;;;21.93;54.65;100226.31;7283250;19;151801;-55
2022/06/08 10:20:34;;;;;;;;;;;;;;;21.89;54.63;100243.00;7283868;19;152616;-55
2022/06/08 10:23:08;;;;;;;;;;;;;;;21.85;54.46;100230.75;7282690;19;154192;-56
2022/06/08 10:25:38;;;;;;;;;;;;;;;21.87;54.70;100242.50;7284168;19;156314;-55
2022/06/08 10:28:09;;;;;;;;;;;;;;;21.88;54.56;100237.72;7283456;19;152905;-55
2022/06/08 10:30:52;;;;;;;;;;;;;;;21.91;54.50;100231.41;7281497;19;154994;-55
2022/06/08 10:33:25;;;;;;;;;;;;;;;21.93;54.56;100227.16;7282962;19;151882;-55
2022/06/08 10:35:55;;;;;;;;;;;;;;;21.96;54.55;100223.66;7284057;19;152551;-57
2022/06/08 10:38:27;;;;;;;;;;;;;;;22.00;54.33;100227.44;7285019;19;154064;-56
2022/06/08 10:43:59;;;;;;;;;;;;;;;22.05;54.47;100220.81;7278417;19;154036;-57
2022/06/08 10:46:32;;;;;;;;;;;;;;;22.04;54.03;100221.97;7273738;19;151899;-56
2022/06/08 10:48:59;;;;;;;;;;;;;;;21.99;54.19;100233.41;7283241;19;152805;-56
2022/06/08 10:51:30;;;;;;;;;;;;;;;21.95;54.13;100235.22;7281162;19;153638;-55
2022/06/08 10:56:58;;;;;;;;;;;;;;;21.86;54.52;100223.97;7282585;19;152975;-57
2022/06/08 10:59:27;;;;;;;;;;;;;;;21.91;54.31;100232.25;7288315;19;154294;-56
2022/06/08 11:01:53;;;;;;;;;;;;;;;21.93;54.29;100227.16;7283707;19;152584;-56
2022/06/08 11:04:26;;;;;;;;;;;;;;;21.96;53.91;100225.63;7277199;19;153497;-56
2022/06/08 11:06:55;;;;;;;;;;;;;;;21.98;54.12;100229.78;7281924;19;151613;-56
2022/06/08 11:09:34;;;;;;;;;;;;;;;21.97;53.77;100233.75;7282767;19;153354;-57
2022/06/08 11:12:03;;;;;;;;;;;;;;;22.01;53.63;100231.09;7280190;19;153268;-56
2022/06/08 11:14:31;;;;;;;;;;;;;;;22.03;53.74;100237.22;7282213;19;151815;-55
2022/06/08 11:17:02;;;;;;;;;;;;;;;22.03;53.30;100220.34;7280927;19;153754;-56
2022/06/08 11:19:29;;;;;;;;;;;;;;;22.02;53.23;100225.13;7280350;19;152566;-55
2022/06/08 11:22:00;;;;;;;;;;;;;;;22.04;53.28;100228.41;7289572;19;152300;-56
2022/06/08 11:24:36;;;;;;;;;;;;;;;22.01;53.38;100236.72;7279833;19;154514;-56
2022/06/08 11:27:12;;;;;;;;;;;;;;;21.98;53.31;100243.84;7281832;19;152288;-56
2022/06/08 11:29:41;;;;;;;;;;;;;;;21.95;53.51;100235.22;7281054;19;153176;-56
2022/06/08 11:32:20;;;;;;;;;;;;;;;21.92;53.41;100233.91;7279850;19;153863;-55
2022/06/08 11:34:49;;;;;;;;;;;;;;;21.92;53.17;100241.50;7280158;19;151833;-55
2022/06/08 11:37:16;;;;;;;;;;;;;;;21.96;52.89;100236.88;7282631;19;153297;-56
2022/06/08 11:39:43;;;;;;;;;;;;;;;21.99;53.23;100236.19;7281079;19;155453;-57
2022/06/08 11:42:22;;;;;;;;;;;;;;;22.00;53.00;100241.50;7281863;19;151820;-55
2022/06/08 11:45:08;;;;;;;;;;;;;;;21.97;53.09;100245.00;7287284;19;153836;-56
2022/06/08 11:47:43;;;;;;;;;;;;;;;22.00;52.76;100227.44;7283392;19;151877;-56
2022/06/08 11:50:18;;;;;;;;;;;;;;;22.00;52.95;100243.50;7286082;19;155083;-56
2022/06/08 11:52:46;;;;;;;;;;;;;;;22.03;52.95;100243.63;7285454;19;154159;-56
2022/06/08 11:55:21;;;;;;;;;;;;;;;22.00;53.22;100264.00;7286499;19;151877;-57
2022/06/08 11:57:59;;;;;;;;;;;;;;;22.00;52.79;100252.75;7285420;19;152912;-56
2022/06/08 12:00:29;;;;;;;;;;;;;;;22.00;52.79;100257.56;7285213;19;154360;-56
2022/06/08 12:02:57;;;;;;;;;;;;;;;21.97;53.14;100250.63;7286841;19;153677;-57
2022/06/08 12:05:26;;;;;;;;;;;;;;;21.95;52.90;100249.28;7285518;19;152840;-56
2022/06/08 12:07:58;;;;;;;;;;;;;;;21.96;52.95;100248.13;7293066;19;153141;-56
2022/06/08 12:10:27;;;;;;;;;;;;;;;21.98;52.76;100240.19;7286678;19;154206;-56
2022/06/08 12:12:54;;;;;;;;;;;;;;;22.00;53.17;100251.94;7284801;19;154050;-55
2022/06/08 12:15:24;;;;;;;;;;;;;;;21.96;52.87;100248.13;7286952;19;151831;-55
2022/06/08 12:17:51;;;;;;;;;;;;;;;21.97;52.81;100247.81;7287282;19;153655;-56
2022/06/08 12:20:32;;;;;;;;;;;;;;;21.98;53.15;100254.28;7285060;19;154641;-56
2022/06/08 12:23:00;;;;;;;;;;;;;;;21.98;53.13;100248.66;7284977;19;153240;-55
2022/06/08 12:25:28;;;;;;;;;;;;;;;21.99;52.72;100250.28;7284320;19;152980;-55
2022/06/08 12:28:03;;;;;;;;;;;;;;;22.01;52.75;100250.78;7286219;19;153625;-56
2022/06/08 12:30:47;;;;;;;;;;;;;;;22.03;53.04;100259.72;7294090;19;152213;-55
2022/06/08 12:33:14;;;;;;;;;;;;;;;22.01;52.94;100256.41;7285710;19;156043;-56
2022/06/08 12:36:01;;;;;;;;;;;;;;;22.01;52.79;100260.03;7284492;19;152624;-56
2022/06/08 12:38:31;;;;;;;;;;;;;;;21.99;52.50;100262.34;7285150;19;153042;-54
2022/06/08 12:41:02;;;;;;;;;;;;;;;22.00;52.42;100251.94;7286614;19;153413;-56
2022/06/08 12:43:39;;;;;;;;;;;;;;;22.01;52.37;100257.22;7285661;19;151702;-56
2022/06/08 12:46:09;;;;;;;;;;;;;;;22.02;52.63;100258.06;7284220;19;153293;-55
2022/06/08 12:48:35;;;;;;;;;;;;;;;22.02;52.39;100258.06;7281480;19;153583;-57
2022/06/08 12:51:20;;;;;;;;;;;;;;;21.98;52.71;100257.91;7286723;19;152140;-56
2022/06/08 12:53:47;;;;;;;;;;;;;;;22.00;52.05;100266.00;7291420;19;153723;-56
2022/06/08 12:56:14;;;;;;;;;;;;;;;22.01;52.21;100256.41;7282683;19;151663;-57
2022/06/08 12:58:41;;;;;;;;;;;;;;;21.99;52.15;100244.66;7283262;19;152528;-55
2022/06/08 13:01:10;;;;;;;;;;;;;;;21.97;52.12;100256.25;7283694;19;154754;-56
2022/06/08 13:03:37;;;;;;;;;;;;;;;21.98;52.20;100262.72;7283705;19;152217;-56
2022/06/08 13:06:04;;;;;;;;;;;;;;;21.98;51.95;100257.09;7283157;19;153121;-55